Weather observations for the past three days for
Manhattan, Manhattan Municipal Airport
Imperial (Metric)
Date Time (cdt) Wind (mph) Vis. (mi.) Weather Sky Cond. Temperature (ºF) Relative Humidity Wind Chill (°F) Heat Index (°F) Pressure Precipitation (in)
Air Dwpt 6 hour altimeter (in) sea level (mb) 1 hr 3 hr 6 hr
Max. Min.
01 14:52 S 13 G 24 10.00 A Few Clouds FEW100 100 61 28% 101 29.92 1011.9
01 13:52 S 13 10.00 Fair CLR 100 62.1 29% 102 29.94 1012.5
01 12:52 SW 14 10.00 A Few Clouds FEW110 98.1 63 98.1 72 32% 100 29.96 1013.2
01 11:52 SW 14 10.00 Fair CLR 95 64 36% 97 29.97 1013.6
01 10:52 SW 13 10.00 Fair CLR 91 64 41% 93 29.97 1013.7
01 09:52 SW 14 G 22 10.00 Fair CLR 86 63 46% 87 29.98 1013.8
01 08:52 SW 8 10.00 Fair CLR 82.9 62.1 49% 84 29.99 1014.3
01 07:52 SW 9 10.00 Fair CLR 77 61 58% 79 29.98 1014.1
01 06:52 SW 3 10.00 Fair CLR 72 61 80.1 72 68% 29.97 1013.7
01 04:52 SW 7 10.00 Fair CLR 75.9 61 60% 78 29.96 1013.3
01 03:52 SW 5 10.00 Fair CLR 73.9 61 64% 29.95 1012.9
01 02:52 SW 3 10.00 Fair CLR 78.1 61 56% 80 29.95 1012.8
01 01:52 SW 8 10.00 Fair CLR 79 62.1 56% 80 29.95 1012.7
01 00:52 S 6 10.00 Fair CLR 79 62.1 95 75 56% 80 29.95 1012.9
31 23:52 Calm 10.00 Fair CLR 80.1 62.1 54% 81 29.95 1012.9
31 22:52 S 6 10.00 Fair CLR 82 63 53% 83 29.93 1012.4
31 21:52 S 8 10.00 Fair CLR 84.9 63 48% 86 29.92 1011.7
31 20:52 S 6 10.00 Fair CLR 84.9 64.9 51% 87 29.89 1011.0
31 19:52 S 5 10.00 Fair CLR 89.1 66.9 48% 92 29.88 1010.6
31 18:52 S 6 10.00 Fair CLR 95 66.9 102 95 40% 99 29.88 1010.6
31 17:52 S 10 10.00 Fair CLR 100 64.9 32% 103 29.88 1010.5
31 16:52 S 10 10.00 Fair CLR 100.9 64 30% 104 29.89 1010.7
31 15:52 S 9 10.00 Fair CLR 100.9 64.9 31% 105 29.9 1011.1
31 14:52 S 9 G 20 10.00 Fair CLR 100 64.9 32% 103 29.92 1011.8
31 13:52 SW 8 10.00 Fair CLR 99 64 32% 102 29.93 1012.2
31 12:52 S 13 10.00 Fair CLR 97 63 97 77 33% 99 29.94 1012.2
31 11:52 S 12 G 24 10.00 Fair CLR 93.9 64 37% 96 29.94 1012.6
31 10:52 S 9 10.00 Fair CLR 89.1 64.9 45% 91 29.95 1012.8
31 09:52 S 9 10.00 Fair CLR 88 66 48% 90 29.95 1012.9
31 08:52 SW 9 10.00 Fair CLR 82.9 64 53% 84 29.97 1013.6
31 07:52 SW 9 10.00 Fair CLR 80.1 62.1 54% 81 29.95 1012.9
31 06:52 SW 9 10.00 Fair CLR 77 62.1 84 73 60% 79 29.92 1012.0
31 05:52 SW 7 10.00 Mostly Cloudy BKN120 77 63 62% 79 29.92 1011.9
31 04:52 SW 9 10.00 Fair CLR 80.1 62.1 54% 81 29.9 1011.2
31 03:52 SW 10 10.00 Fair CLR 81 62.1 53% 82 29.88 1010.4
31 02:52 SW 7 10.00 Fair CLR 79 62.1 56% 80 29.87 1010.0
31 01:52 SW 9 10.00 Fair CLR 80.1 62.1 54% 81 29.88 1010.4
31 00:52 SW 10 10.00 Fair CLR 84 61 97 82 46% 84 29.87 1009.9
30 23:52 SW 7 10.00 Fair CLR 84.9 62.1 46% 85 29.84 1009.1
30 22:52 SW 9 10.00 Fair CLR 89.1 62.1 41% 89 29.82 1008.5
30 21:52 S 12 10.00 Fair CLR 90 64 42% 91 29.81 1008.2
30 20:52 S 10 10.00 Fair CLR 90 64.9 44% 92 29.79 1007.5
30 19:52 S 8 10.00 Fair CLR 91.9 66.9 44% 95 29.78 1007.0
30 18:52 S 10 10.00 Fair CLR 97 66 102 97 36% 101 29.78 1007.0
30 16:52 S 13 G 23 10.00 Fair CLR 102 66 31% 107 29.77 1006.7
30 15:52 S 18 G 28 10.00 Fair CLR 102 66 31% 107 29.79 1007.2
30 14:52 SW 16 G 24 10.00 Fair CLR 100.9 66 32% 105 29.81 1007.9
30 13:52 S 14 G 23 10.00 Fair CLR 100 66.9 34% 105 29.82 1008.3
30 12:52 SW 16 G 26 10.00 Fair CLR 98.1 66.9 98.1 79 36% 103 29.84 1008.9
30 11:52 SW 21 G 29 10.00 Fair and Breezy CLR 93.9 66.9 41% 98 29.85 1009.4
30 10:52 SW 18 G 30 10.00 Fair CLR 90 66 45% 93 29.84 1009.1
30 09:52 SW 18 10.00 Fair CLR 87.1 64 46% 88 29.84 1009.1
30 08:52 SW 20 G 28 10.00 Fair CLR 82 62.1 51% 83 29.85 1009.7
30 07:52 S 14 G 25 10.00 Fair CLR 80.1 61 52% 81 29.87 1010.0
30 06:52 S 13 10.00 Fair CLR 79 61 84.9 79 54% 80 29.87 1010.2
30 05:52 S 12 G 22 10.00 Fair CLR 80.1 61 52% 81 29.87 1010.0
30 04:52 S 9 10.00 Fair CLR 80.1 61 52% 81 29.87 1010.1
30 03:52 S 12 10.00 Fair CLR 82 61 49% 83 29.86 1009.8
30 02:52 SW 13 G 24 10.00 Fair CLR 84 61 46% 84 29.86 1009.7
30 01:52 S 13 G 23 10.00 Fair CLR 84 61 46% 84 29.86 1009.8
30 00:52 S 13 G 22 10.00 Fair CLR 84 62.1 93.9 84 48% 85 29.86 1009.7
29 23:52 S 13 G 28 10.00 Fair CLR 86 62.1 45% 87 29.86 1009.6
29 22:52 S 14 G 23 10.00 Fair CLR 84.9 62.1 46% 85 29.86 1009.7
29 21:52 S 10 G 21 10.00 Fair CLR 86 62.1 45% 87 29.85 1009.7
29 20:52 S 7 10.00 Fair CLR 84.9 64 50% 86 29.83 1009.0
29 19:52 S 8 10.00 Fair CLR 89.1 66 47% 92 29.82 1008.6
29 18:52 S 12 10.00 Fair CLR 93.9 66 99 93 40% 97 29.82 1008.6
29 17:52 S 13 G 23 10.00 Fair CLR 97 64.9 35% 100 29.82 1008.7
29 16:52 S 13 G 22 10.00 Fair CLR 99 64.9 33% 102 29.83 1008.8
Date Time (cdt) Wind (mph) Vis. (mi.) Weather Sky Cond. Air Dwpt Max. Min. Relative Humidity Wind Chill (°F) Heat Index (°F) altimeter (in) sea level (mb) 1 hr 3 hr 6 hr
6 hour
Temperature (ºF) Pressure Precipitation (in)